sensor_id;sensor_type;location;lat;lon;timestamp;pressure;altitude;pressure_sealevel;temperature;humidity
70015;BME280;57358;51.094;6.760;2022-09-14T00:01:08;100244.09;;;17.69;100.00
70015;BME280;57358;51.094;6.760;2022-09-14T00:03:56;100215.16;;;17.47;100.00
70015;BME280;57358;51.094;6.760;2022-09-14T00:06:27;100229.56;;;17.54;100.00
70015;BME280;57358;51.094;6.760;2022-09-14T00:08:55;100156.25;;;16.93;100.00
70015;BME280;57358;51.094;6.760;2022-09-14T00:11:25;100011.19;;;16.04;100.00
70015;BME280;57358;51.094;6.760;2022-09-14T00:13:53;100210.63;;;17.28;100.00
70015;BME280;57358;51.094;6.760;2022-09-14T00:16:23;99867.41;;;15.11;100.00
70015;BME280;57358;51.094;6.760;2022-09-14T00:18:56;99996.41;;;16.02;100.00
70015;BME280;57358;51.094;6.760;2022-09-14T00:21:26;100169.53;;;17.03;100.00
70015;BME280;57358;51.094;6.760;2022-09-14T00:23:53;100139.41;;;16.94;100.00
70015;BME280;57358;51.094;6.760;2022-09-14T00:26:21;100180.91;;;17.24;100.00
70015;BME280;57358;51.094;6.760;2022-09-14T00:28:53;100190.56;;;17.35;100.00
70015;BME280;57358;51.094;6.760;2022-09-14T00:31:21;100181.78;;;17.34;100.00
70015;BME280;57358;51.094;6.760;2022-09-14T00:33:49;100126.88;;;17.15;100.00
70015;BME280;57358;51.094;6.760;2022-09-14T00:36:21;100124.75;;;17.09;100.00
70015;BME280;57358;51.094;6.760;2022-09-14T00:38:49;100137.50;;;17.25;100.00
70015;BME280;57358;51.094;6.760;2022-09-14T00:41:19;99992.34;;;16.38;100.00
70015;BME280;57358;51.094;6.760;2022-09-14T00:46:20;99969.81;;;16.13;100.00
70015;BME280;57358;51.094;6.760;2022-09-14T00:48:47;100172.28;;;17.32;100.00
70015;BME280;57358;51.094;6.760;2022-09-14T00:51:16;100163.91;;;17.37;100.00
70015;BME280;57358;51.094;6.760;2022-09-14T00:53:44;100123.41;;;17.25;100.00
70015;BME280;57358;51.094;6.760;2022-09-14T00:56:11;100153.44;;;17.45;100.00
70015;BME280;57358;51.094;6.760;2022-09-14T00:58:40;99957.75;;;16.20;100.00
70015;BME280;57358;51.094;6.760;2022-09-14T01:01:08;100163.06;;;17.46;100.00
70015;BME280;57358;51.094;6.760;2022-09-14T01:03:36;100150.38;;;17.49;100.00
70015;BME280;57358;51.094;6.760;2022-09-14T01:06:20;100151.19;;;17.50;100.00
70015;BME280;57358;51.094;6.760;2022-09-14T01:08:55;100155.53;;;17.51;100.00
70015;BME280;57358;51.094;6.760;2022-09-14T01:11:32;100155.53;;;17.51;100.00
70015;BME280;57358;51.094;6.760;2022-09-14T01:16:52;100072.03;;;17.06;100.00
70015;BME280;57358;51.094;6.760;2022-09-14T01:20:02;100143.25;;;17.50;100.00
70015;BME280;57358;51.094;6.760;2022-09-14T01:22:50;100015.28;;;16.68;100.00
70015;BME280;57358;51.094;6.760;2022-09-14T01:28:41;100152.47;;;17.55;100.00
70015;BME280;57358;51.094;6.760;2022-09-14T01:31:19;100150.50;;;17.58;100.00
70015;BME280;57358;51.094;6.760;2022-09-14T01:34:16;99949.78;;;16.20;100.00
70015;BME280;57358;51.094;6.760;2022-09-14T01:36:49;99980.91;;;16.38;100.00
70015;BME280;57358;51.094;6.760;2022-09-14T01:39:20;100163.50;;;17.51;100.00
70015;BME280;57358;51.094;6.760;2022-09-14T01:41:51;100155.28;;;17.54;100.00
70015;BME280;57358;51.094;6.760;2022-09-14T01:44:23;100155.53;;;17.51;100.00
70015;BME280;57358;51.094;6.760;2022-09-14T01:46:58;100074.22;;;16.91;100.00
70015;BME280;57358;51.094;6.760;2022-09-14T01:49:37;100153.03;;;17.30;100.00
70015;BME280;57358;51.094;6.760;2022-09-14T01:52:24;100151.19;;;17.21;100.00
70015;BME280;57358;51.094;6.760;2022-09-14T01:54:59;100157.34;;;17.31;100.00
70015;BME280;57358;51.094;6.760;2022-09-14T01:57:33;100081.34;;;16.91;100.00
70015;BME280;57358;51.094;6.760;2022-09-14T02:00:10;100108.16;;;17.07;100.00
70015;BME280;57358;51.094;6.760;2022-09-14T02:02:39;100102.16;;;17.05;100.00
70015;BME280;57358;51.094;6.760;2022-09-14T02:08:11;100028.22;;;16.52;100.00
70015;BME280;57358;51.094;6.760;2022-09-14T02:10:38;100108.44;;;17.04;100.00
70015;BME280;57358;51.094;6.760;2022-09-14T02:13:06;99937.72;;;15.97;100.00
70015;BME280;57358;51.094;6.760;2022-09-14T02:15:35;100117.47;;;17.02;100.00
70015;BME280;57358;51.094;6.760;2022-09-14T02:18:03;99943.09;;;15.75;100.00
70015;BME280;57358;51.094;6.760;2022-09-14T02:20:40;100139.25;;;17.05;100.00
70015;BME280;57358;51.094;6.760;2022-09-14T02:23:09;100119.38;;;16.80;100.00
70015;BME280;57358;51.094;6.760;2022-09-14T02:25:35;99824.59;;;15.18;100.00
70015;BME280;57358;51.094;6.760;2022-09-14T02:28:03;100031.03;;;16.20;100.00
70015;BME280;57358;51.094;6.760;2022-09-14T02:30:35;100114.06;;;16.80;100.00
70015;BME280;57358;51.094;6.760;2022-09-14T02:33:11;100116.84;;;16.79;100.00
70015;BME280;57358;51.094;6.760;2022-09-14T02:35:52;99920.03;;;15.45;100.00
70015;BME280;57358;51.094;6.760;2022-09-14T02:46:57;100106.25;;;16.79;100.00
70015;BME280;57358;51.094;6.760;2022-09-14T02:49:52;100100.81;;;16.80;100.00
70015;BME280;57358;51.094;6.760;2022-09-14T02:55:05;100095.38;;;16.82;100.00
70015;BME280;57358;51.094;6.760;2022-09-14T02:58:03;100087.13;;;16.75;100.00
70015;BME280;57358;51.094;6.760;2022-09-14T03:00:33;100085.69;;;16.61;100.00
70015;BME280;57358;51.094;6.760;2022-09-14T03:03:06;100059.84;;;16.44;100.00
70015;BME280;57358;51.094;6.760;2022-09-14T03:05:33;100075.38;;;16.58;100.00
70015;BME280;57358;51.094;6.760;2022-09-14T03:08:00;100073.00;;;16.65;100.00
70015;BME280;57358;51.094;6.760;2022-09-14T03:10:28;100011.09;;;16.25;100.00
70015;BME280;57358;51.094;6.760;2022-09-14T03:12:56;100045.38;;;16.48;100.00
70015;BME280;57358;51.094;6.760;2022-09-14T03:15:24;100042.66;;;16.38;100.00
70015;BME280;57358;51.094;6.760;2022-09-14T03:17:51;100026.47;;;16.31;100.00
70015;BME280;57358;51.094;6.760;2022-09-14T03:20:23;100077.22;;;16.37;100.00
70015;BME280;57358;51.094;6.760;2022-09-14T03:22:49;100034.88;;;16.15;100.00
70015;BME280;57358;51.094;6.760;2022-09-14T03:25:16;100058.94;;;16.33;100.00
70015;BME280;57358;51.094;6.760;2022-09-14T03:27:49;100027.94;;;16.14;100.00
70015;BME280;57358;51.094;6.760;2022-09-14T03:30:16;99707.09;;;14.28;100.00
70015;BME280;57358;51.094;6.760;2022-09-14T03:32:43;100049.91;;;16.36;100.00
70015;BME280;57358;51.094;6.760;2022-09-14T03:35:11;100032.66;;;16.11;100.00
70015;BME280;57358;51.094;6.760;2022-09-14T03:37:39;99872.41;;;15.14;100.00
70015;BME280;57358;51.094;6.760;2022-09-14T03:40:07;99983.94;;;15.92;100.00
70015;BME280;57358;51.094;6.760;2022-09-14T03:42:34;100025.94;;;16.07;100.00
70015;BME280;57358;51.094;6.760;2022-09-14T03:45:01;100064.38;;;16.32;100.00
70015;BME280;57358;51.094;6.760;2022-09-14T03:47:28;99951.91;;;15.86;100.00
70015;BME280;57358;51.094;6.760;2022-09-14T03:49:54;99979.38;;;15.94;100.00
70015;BME280;57358;51.094;6.760;2022-09-14T03:52:21;100037.22;;;16.30;100.00
70015;BME280;57358;51.094;6.760;2022-09-14T03:54:50;99871.25;;;15.07;100.00
70015;BME280;57358;51.094;6.760;2022-09-14T03:57:16;100035.81;;;16.35;100.00
70015;BME280;57358;51.094;6.760;2022-09-14T03:59:43;100039.56;;;16.33;100.00
70015;BME280;57358;51.094;6.760;2022-09-14T04:02:09;99906.81;;;15.45;100.00
70015;BME280;57358;51.094;6.760;2022-09-14T04:04:39;100035.47;;;16.19;100.00
70015;BME280;57358;51.094;6.760;2022-09-14T04:07:06;100036.59;;;16.17;100.00
70015;BME280;57358;51.094;6.760;2022-09-14T04:09:32;100027.81;;;16.16;100.00
70015;BME280;57358;51.094;6.760;2022-09-14T04:11:59;100010.34;;;16.04;100.00
70015;BME280;57358;51.094;6.760;2022-09-14T04:14:32;100019.59;;;16.19;100.00
70015;BME280;57358;51.094;6.760;2022-09-14T04:17:11;100023.63;;;16.23;100.00
70015;BME280;57358;51.094;6.760;2022-09-14T04:19:39;99779.53;;;14.67;100.00
70015;BME280;57358;51.094;6.760;2022-09-14T04:22:30;99822.09;;;14.95;100.00
70015;BME280;57358;51.094;6.760;2022-09-14T04:25:41;100020.66;;;16.07;100.00
70015;BME280;57358;51.094;6.760;2022-09-14T04:27:49;100015.94;;;16.10;100.00
70015;BME280;57358;51.094;6.760;2022-09-14T04:30:36;100014.81;;;16.13;100.00
70015;BME280;57358;51.094;6.760;2022-09-14T04:33:02;99921.06;;;15.54;100.00
70015;BME280;57358;51.094;6.760;2022-09-14T04:35:29;100018.59;;;16.10;100.00
70015;BME280;57358;51.094;6.760;2022-09-14T04:37:55;99991.59;;;15.95;100.00
70015;BME280;57358;51.094;6.760;2022-09-14T04:40:21;99864.44;;;15.05;100.00
70015;BME280;57358;51.094;6.760;2022-09-14T04:42:48;99898.44;;;15.19;100.00
70015;BME280;57358;51.094;6.760;2022-09-14T04:45:15;99973.13;;;15.74;100.00
70015;BME280;57358;51.094;6.760;2022-09-14T04:47:41;100023.69;;;16.02;100.00
70015;BME280;57358;51.094;6.760;2022-09-14T04:50:08;99978.47;;;15.84;100.00
70015;BME280;57358;51.094;6.760;2022-09-14T04:52:35;99700.72;;;14.09;100.00
70015;BME280;57358;51.094;6.760;2022-09-14T04:55:02;99801.09;;;14.72;100.00
70015;BME280;57358;51.094;6.760;2022-09-14T04:57:29;99762.94;;;14.44;100.00
70015;BME280;57358;51.094;6.760;2022-09-14T04:59:56;99932.56;;;15.43;100.00
70015;BME280;57358;51.094;6.760;2022-09-14T05:02:22;99990.09;;;15.72;100.00
70015;BME280;57358;51.094;6.760;2022-09-14T05:04:49;100004.13;;;15.93;100.00
70015;BME280;57358;51.094;6.760;2022-09-14T05:07:16;100010.41;;;15.92;100.00
70015;BME280;57358;51.094;6.760;2022-09-14T05:09:42;99812.50;;;14.73;100.00
70015;BME280;57358;51.094;6.760;2022-09-14T05:12:08;99923.47;;;15.36;100.00
70015;BME280;57358;51.094;6.760;2022-09-14T05:14:36;99979.88;;;15.67;100.00
70015;BME280;57358;51.094;6.760;2022-09-14T05:17:03;99985.31;;;15.66;100.00
70015;BME280;57358;51.094;6.760;2022-09-14T05:19:29;99934.88;;;15.36;100.00
70015;BME280;57358;51.094;6.760;2022-09-14T05:21:56;99983.19;;;15.60;100.00
70015;BME280;57358;51.094;6.760;2022-09-14T05:24:22;99833.66;;;14.29;100.00
70015;BME280;57358;51.094;6.760;2022-09-14T05:26:51;99991.63;;;15.53;100.00
70015;BME280;57358;51.094;6.760;2022-09-14T05:29:17;99985.19;;;15.46;100.00
70015;BME280;57358;51.094;6.760;2022-09-14T05:31:44;99990.66;;;15.54;100.00
70015;BME280;57358;51.094;6.760;2022-09-14T05:34:11;99973.38;;;15.50;100.00
70015;BME280;57358;51.094;6.760;2022-09-14T05:36:39;100017.81;;;15.56;100.00
70015;BME280;57358;51.094;6.760;2022-09-14T05:39:06;99987.06;;;15.55;100.00
70015;BME280;57358;51.094;6.760;2022-09-14T05:41:32;99909.31;;;15.16;100.00
70015;BME280;57358;51.094;6.760;2022-09-14T05:43:59;99983.44;;;15.56;100.00
70015;BME280;57358;51.094;6.760;2022-09-14T05:46:25;99892.97;;;14.90;100.00
70015;BME280;57358;51.094;6.760;2022-09-14T05:48:52;99898.06;;;15.03;100.00
70015;BME280;57358;51.094;6.760;2022-09-14T05:51:21;99983.25;;;15.48;100.00
70015;BME280;57358;51.094;6.760;2022-09-14T05:53:49;99982.66;;;15.45;100.00
70015;BME280;57358;51.094;6.760;2022-09-14T05:56:17;99959.13;;;15.21;100.00
70015;BME280;57358;51.094;6.760;2022-09-14T05:58:44;99975.88;;;15.31;100.00
70015;BME280;57358;51.094;6.760;2022-09-14T06:01:13;99988.28;;;15.30;100.00
70015;BME280;57358;51.094;6.760;2022-09-14T06:03:40;99809.97;;;14.07;100.00
70015;BME280;57358;51.094;6.760;2022-09-14T06:06:08;99992.25;;;15.25;100.00
70015;BME280;57358;51.094;6.760;2022-09-14T06:08:35;99777.06;;;13.90;100.00
70015;BME280;57358;51.094;6.760;2022-09-14T06:11:08;99860.72;;;14.43;100.00
70015;BME280;57358;51.094;6.760;2022-09-14T06:13:34;99774.09;;;13.83;100.00
70015;BME280;57358;51.094;6.760;2022-09-14T06:16:03;99977.94;;;15.06;100.00
70015;BME280;57358;51.094;6.760;2022-09-14T06:18:31;100001.41;;;15.21;100.00
70015;BME280;57358;51.094;6.760;2022-09-14T06:20:58;99770.84;;;13.80;100.00
70015;BME280;57358;51.094;6.760;2022-09-14T06:23:26;99984.31;;;15.04;100.00
70015;BME280;57358;51.094;6.760;2022-09-14T06:25:54;100000.25;;;15.13;100.00
70015;BME280;57358;51.094;6.760;2022-09-14T06:28:22;100001.09;;;15.14;100.00
70015;BME280;57358;51.094;6.760;2022-09-14T06:30:48;99813.38;;;13.86;100.00
70015;BME280;57358;51.094;6.760;2022-09-14T06:33:16;100007.59;;;15.10;100.00
70015;BME280;57358;51.094;6.760;2022-09-14T06:35:42;99791.13;;;13.79;100.00
70015;BME280;57358;51.094;6.760;2022-09-14T06:38:11;99988.53;;;14.95;100.00
70015;BME280;57358;51.094;6.760;2022-09-14T06:40:59;99995.72;;;15.04;100.00
70015;BME280;57358;51.094;6.760;2022-09-14T06:43:29;99998.88;;;14.98;100.00
70015;BME280;57358;51.094;6.760;2022-09-14T06:46:06;99991.19;;;14.95;100.00
70015;BME280;57358;51.094;6.760;2022-09-14T06:48:38;99996.22;;;14.98;100.00
70015;BME280;57358;51.094;6.760;2022-09-14T06:51:29;99989.63;;;14.92;100.00
70015;BME280;57358;51.094;6.760;2022-09-14T06:53:57;99993.81;;;14.95;100.00
70015;BME280;57358;51.094;6.760;2022-09-14T06:56:29;99788.00;;;13.63;100.00
70015;BME280;57358;51.094;6.760;2022-09-14T06:58:57;99996.72;;;14.92;100.00
70015;BME280;57358;51.094;6.760;2022-09-14T07:01:25;99753.88;;;13.39;100.00
70015;BME280;57358;51.094;6.760;2022-09-14T07:03:52;99814.75;;;13.69;100.00
70015;BME280;57358;51.094;6.760;2022-09-14T07:06:25;99962.31;;;14.71;100.00
70015;BME280;57358;51.094;6.760;2022-09-14T07:08:52;99999.16;;;14.84;100.00
70015;BME280;57358;51.094;6.760;2022-09-14T07:11:22;99999.28;;;14.82;100.00
70015;BME280;57358;51.094;6.760;2022-09-14T07:13:52;99999.28;;;14.82;100.00
70015;BME280;57358;51.094;6.760;2022-09-14T07:16:20;99989.31;;;14.86;100.00
70015;BME280;57358;51.094;6.760;2022-09-14T07:18:46;99988.94;;;14.90;100.00
70015;BME280;57358;51.094;6.760;2022-09-14T07:21:15;99922.75;;;14.60;100.00
70015;BME280;57358;51.094;6.760;2022-09-14T07:23:44;99979.88;;;15.04;100.00
70015;BME280;57358;51.094;6.760;2022-09-14T07:26:17;99979.88;;;15.04;100.00
70015;BME280;57358;51.094;6.760;2022-09-14T07:28:46;99957.81;;;14.94;100.00
70015;BME280;57358;51.094;6.760;2022-09-14T07:31:21;99985.34;;;15.12;100.00
70015;BME280;57358;51.094;6.760;2022-09-14T07:33:51;99982.84;;;15.11;100.00
70015;BME280;57358;51.094;6.760;2022-09-14T07:36:19;99978.44;;;15.00;100.00
70015;BME280;57358;51.094;6.760;2022-09-14T07:38:47;99785.59;;;13.82;100.00
70015;BME280;57358;51.094;6.760;2022-09-14T07:41:19;99904.75;;;14.53;100.00
70015;BME280;57358;51.094;6.760;2022-09-14T07:43:50;99745.81;;;13.63;100.00
70015;BME280;57358;51.094;6.760;2022-09-14T07:46:18;99973.16;;;15.00;100.00
70015;BME280;57358;51.094;6.760;2022-09-14T07:48:44;99982.25;;;15.07;100.00
70015;BME280;57358;51.094;6.760;2022-09-14T07:51:12;99964.13;;;15.03;100.00
70015;BME280;57358;51.094;6.760;2022-09-14T07:53:40;99969.03;;;15.07;100.00
70015;BME280;57358;51.094;6.760;2022-09-14T07:56:09;99824.84;;;14.08;100.00
70015;BME280;57358;51.094;6.760;2022-09-14T07:58:36;99968.31;;;15.05;100.00
70015;BME280;57358;51.094;6.760;2022-09-14T08:01:09;99969.31;;;15.04;100.00
70015;BME280;57358;51.094;6.760;2022-09-14T08:03:40;99826.78;;;14.06;100.00
70015;BME280;57358;51.094;6.760;2022-09-14T08:06:10;99976.44;;;14.92;100.00
70015;BME280;57358;51.094;6.760;2022-09-14T08:08:39;99970.63;;;14.99;100.00
70015;BME280;57358;51.094;6.760;2022-09-14T08:11:15;99959.78;;;14.81;100.00
70015;BME280;57358;51.094;6.760;2022-09-14T08:13:44;99913.88;;;14.49;100.00
70015;BME280;57358;51.094;6.760;2022-09-14T08:16:11;99972.75;;;14.84;100.00
70015;BME280;57358;51.094;6.760;2022-09-14T08:18:39;99937.78;;;14.36;100.00
70015;BME280;57358;51.094;6.760;2022-09-14T08:21:08;99911.16;;;14.40;100.00
70015;BME280;57358;51.094;6.760;2022-09-14T08:23:39;99974.47;;;14.73;100.00
70015;BME280;57358;51.094;6.760;2022-09-14T08:26:10;99951.09;;;14.58;100.00
70015;BME280;57358;51.094;6.760;2022-09-14T08:28:37;99967.59;;;14.71;100.00
70015;BME280;57358;51.094;6.760;2022-09-14T08:31:12;99972.31;;;14.67;100.00
70015;BME280;57358;51.094;6.760;2022-09-14T08:33:41;99960.78;;;14.68;100.00
70015;BME280;57358;51.094;6.760;2022-09-14T08:36:09;99956.22;;;14.70;100.00
70015;BME280;57358;51.094;6.760;2022-09-14T08:38:36;99735.09;;;13.32;100.00
70015;BME280;57358;51.094;6.760;2022-09-14T08:41:28;99954.28;;;14.72;100.00
70015;BME280;57358;51.094;6.760;2022-09-14T08:46:57;99947.47;;;14.59;100.00
70015;BME280;57358;51.094;6.760;2022-09-14T08:50:18;99938.72;;;14.58;100.00
70015;BME280;57358;51.094;6.760;2022-09-14T08:52:27;99961.81;;;14.77;100.00
70015;BME280;57358;51.094;6.760;2022-09-14T08:54:59;99960.47;;;14.83;100.00
70015;BME280;57358;51.094;6.760;2022-09-14T08:57:43;99968.19;;;14.86;100.00
70015;BME280;57358;51.094;6.760;2022-09-14T09:00:14;99937.00;;;14.68;100.00
70015;BME280;57358;51.094;6.760;2022-09-14T09:11:17;99936.09;;;14.90;100.00
70015;BME280;57358;51.094;6.760;2022-09-14T09:13:53;99712.16;;;13.55;100.00
70015;BME280;57358;51.094;6.760;2022-09-14T09:16:23;99978.13;;;15.14;100.00
70015;BME280;57358;51.094;6.760;2022-09-14T09:18:56;99970.13;;;15.05;100.00
70015;BME280;57358;51.094;6.760;2022-09-14T09:21:28;99797.16;;;14.02;100.00
70015;BME280;57358;51.094;6.760;2022-09-14T09:27:16;99955.09;;;15.05;100.00
70015;BME280;57358;51.094;6.760;2022-09-14T09:29:43;99972.47;;;15.19;100.00
70015;BME280;57358;51.094;6.760;2022-09-14T09:32:14;99938.59;;;14.92;100.00
70015;BME280;57358;51.094;6.760;2022-09-14T09:34:42;99847.00;;;14.28;100.00
70015;BME280;57358;51.094;6.760;2022-09-14T09:37:20;99973.16;;;15.21;100.00
70015;BME280;57358;51.094;6.760;2022-09-14T09:39:48;99935.91;;;15.03;100.00
70015;BME280;57358;51.094;6.760;2022-09-14T09:42:21;99964.69;;;15.18;100.00
70015;BME280;57358;51.094;6.760;2022-09-14T09:47:39;99738.31;;;13.90;100.00
70015;BME280;57358;51.094;6.760;2022-09-14T09:50:17;99947.53;;;15.12;100.00
70015;BME280;57358;51.094;6.760;2022-09-14T09:52:53;99678.78;;;13.33;100.00
70015;BME280;57358;51.094;6.760;2022-09-14T09:55:23;99957.69;;;14.95;100.00
70015;BME280;57358;51.094;6.760;2022-09-14T09:57:52;99938.53;;;14.82;100.00
70015;BME280;57358;51.094;6.760;2022-09-14T10:00:22;99973.88;;;15.02;100.00
70015;BME280;57358;51.094;6.760;2022-09-14T10:02:49;99993.09;;;14.93;100.00
70015;BME280;57358;51.094;6.760;2022-09-14T10:10:18;99970.84;;;15.07;100.00
70015;BME280;57358;51.094;6.760;2022-09-14T10:12:48;99972.56;;;14.96;100.00
70015;BME280;57358;51.094;6.760;2022-09-14T10:15:29;99982.03;;;14.99;100.00
70015;BME280;57358;51.094;6.760;2022-09-14T10:20:42;99946.78;;;14.89;100.00
70015;BME280;57358;51.094;6.760;2022-09-14T10:23:30;99934.94;;;15.04;100.00
70015;BME280;57358;51.094;6.760;2022-09-14T10:28:41;99941.19;;;15.03;100.00
70015;BME280;57358;51.094;6.760;2022-09-14T10:33:41;99882.72;;;14.75;100.00
70015;BME280;57358;51.094;6.760;2022-09-14T10:38:52;99707.03;;;13.53;100.00
70015;BME280;57358;51.094;6.760;2022-09-14T10:41:47;99910.38;;;14.92;100.00
70015;BME280;57358;51.094;6.760;2022-09-14T10:47:20;99928.88;;;14.92;100.00
70015;BME280;57358;51.094;6.760;2022-09-14T10:49:59;99947.53;;;14.80;100.00
70015;BME280;57358;51.094;6.760;2022-09-14T10:55:32;99954.81;;;14.87;100.00
70015;BME280;57358;51.094;6.760;2022-09-14T10:58:17;99946.06;;;14.87;100.00
70015;BME280;57358;51.094;6.760;2022-09-14T11:03:48;99789.25;;;13.91;100.00
70015;BME280;57358;51.094;6.760;2022-09-14T11:06:25;99930.16;;;14.98;100.00
70015;BME280;57358;51.094;6.760;2022-09-14T11:09:20;99928.63;;;15.16;100.00
70015;BME280;57358;51.094;6.760;2022-09-14T11:17:24;99911.75;;;15.29;100.00
70015;BME280;57358;51.094;6.760;2022-09-14T11:20:16;99900.72;;;15.24;100.00
70015;BME280;57358;51.094;6.760;2022-09-14T11:25:28;99901.00;;;15.51;100.00
70015;BME280;57358;51.094;6.760;2022-09-14T11:28:04;99695.38;;;14.21;100.00
70015;BME280;57358;51.094;6.760;2022-09-14T11:30:54;99905.50;;;15.61;100.00
70015;BME280;57358;51.094;6.760;2022-09-14T11:33:35;99901.06;;;15.82;100.00
70015;BME280;57358;51.094;6.760;2022-09-14T11:36:24;99697.97;;;14.32;100.00
70015;BME280;57358;51.094;6.760;2022-09-14T11:38:59;99909.16;;;15.60;100.00
70015;BME280;57358;51.094;6.760;2022-09-14T11:44:20;99698.72;;;14.23;100.00
70015;BME280;57358;51.094;6.760;2022-09-14T11:46:53;99912.63;;;15.39;100.00
70015;BME280;57358;51.094;6.760;2022-09-14T11:49:48;99914.56;;;15.37;100.00
70015;BME280;57358;51.094;6.760;2022-09-14T11:52:20;99902.34;;;15.36;100.00
70015;BME280;57358;51.094;6.760;2022-09-14T11:54:48;99819.06;;;14.79;100.00
70015;BME280;57358;51.094;6.760;2022-09-14T11:57:17;99688.22;;;13.90;100.00
70015;BME280;57358;51.094;6.760;2022-09-14T12:12:45;99866.25;;;15.87;100.00
70015;BME280;57358;51.094;6.760;2022-09-14T12:15:14;99898.91;;;16.07;100.00
70015;BME280;57358;51.094;6.760;2022-09-14T12:17:41;99905.81;;;15.88;100.00
70015;BME280;57358;51.094;6.760;2022-09-14T12:23:22;99884.69;;;16.08;100.00
70015;BME280;57358;51.094;6.760;2022-09-14T12:36:10;99890.88;;;15.87;100.00
70015;BME280;57358;51.094;6.760;2022-09-14T12:43:54;99901.91;;;15.62;100.00
70015;BME280;57358;51.094;6.760;2022-09-14T12:56:41;99867.06;;;15.56;100.00
70015;BME280;57358;51.094;6.760;2022-09-14T13:04:54;99795.06;;;15.43;100.00
70015;BME280;57358;51.094;6.760;2022-09-14T13:07:27;99843.72;;;15.71;100.00
70015;BME280;57358;51.094;6.760;2022-09-14T13:09:56;99788.66;;;15.36;100.00
70015;BME280;57358;51.094;6.760;2022-09-14T13:15:05;99841.78;;;15.64;100.00
70015;BME280;57358;51.094;6.760;2022-09-14T13:17:32;99877.38;;;15.81;100.00
70015;BME280;57358;51.094;6.760;2022-09-14T13:20:03;99873.44;;;15.75;100.00
70015;BME280;57358;51.094;6.760;2022-09-14T13:22:31;99461.78;;;13.23;100.00
70015;BME280;57358;51.094;6.760;2022-09-14T13:24:59;99802.47;;;15.19;100.00
70015;BME280;57358;51.094;6.760;2022-09-14T13:27:29;99865.19;;;15.38;100.00
70015;BME280;57358;51.094;6.760;2022-09-14T13:30:00;99695.63;;;14.39;100.00
70015;BME280;57358;51.094;6.760;2022-09-14T13:32:27;99718.56;;;14.38;100.00
70015;BME280;57358;51.094;6.760;2022-09-14T13:34:54;99792.84;;;14.87;100.00
70015;BME280;57358;51.094;6.760;2022-09-14T13:37:22;99854.09;;;15.23;100.00
70015;BME280;57358;51.094;6.760;2022-09-14T13:39:53;99683.91;;;14.10;100.00
70015;BME280;57358;51.094;6.760;2022-09-14T13:42:23;99707.78;;;14.09;100.00
70015;BME280;57358;51.094;6.760;2022-09-14T13:44:51;99652.31;;;13.99;100.00
70015;BME280;57358;51.094;6.760;2022-09-14T13:47:23;99851.16;;;15.16;100.00
70015;BME280;57358;51.094;6.760;2022-09-14T13:49:52;99663.25;;;13.94;100.00
70015;BME280;57358;51.094;6.760;2022-09-14T13:55:26;99849.28;;;15.07;100.00
70015;BME280;57358;51.094;6.760;2022-09-14T14:00:55;99855.28;;;15.09;100.00
70015;BME280;57358;51.094;6.760;2022-09-14T14:03:35;99854.25;;;15.00;100.00
70015;BME280;57358;51.094;6.760;2022-09-14T14:09:14;99849.91;;;14.99;100.00
70015;BME280;57358;51.094;6.760;2022-09-14T14:11:52;99840.84;;;14.92;100.00
70015;BME280;57358;51.094;6.760;2022-09-14T14:14:24;99849.41;;;14.84;100.00
70015;BME280;57358;51.094;6.760;2022-09-14T14:19:38;99823.25;;;14.60;100.00
70015;BME280;57358;51.094;6.760;2022-09-14T14:22:19;99852.31;;;14.81;100.00
70015;BME280;57358;51.094;6.760;2022-09-14T14:24:48;99631.03;;;13.59;100.00
70015;BME280;57358;51.094;6.760;2022-09-14T14:27:45;99708.28;;;14.03;100.00
70015;BME280;57358;51.094;6.760;2022-09-14T14:30:18;99838.25;;;14.81;100.00
70015;BME280;57358;51.094;6.760;2022-09-14T14:32:52;99842.28;;;14.96;100.00
70015;BME280;57358;51.094;6.760;2022-09-14T14:35:28;99660.09;;;13.80;100.00
70015;BME280;57358;51.094;6.760;2022-09-14T14:37:56;99838.91;;;15.15;100.00
70015;BME280;57358;51.094;6.760;2022-09-14T14:40:23;99612.75;;;13.78;100.00
70015;BME280;57358;51.094;6.760;2022-09-14T14:42:53;99818.03;;;15.12;100.00
70015;BME280;57358;51.094;6.760;2022-09-14T14:45:21;99833.09;;;15.21;100.00
70015;BME280;57358;51.094;6.760;2022-09-14T14:47:53;99817.66;;;14.95;100.00
70015;BME280;57358;51.094;6.760;2022-09-14T14:50:25;99831.59;;;14.98;100.00
70015;BME280;57358;51.094;6.760;2022-09-14T14:52:52;99844.50;;;15.22;100.00
70015;BME280;57358;51.094;6.760;2022-09-14T14:55:20;99836.00;;;15.18;100.00
70015;BME280;57358;51.094;6.760;2022-09-14T14:57:48;99838.19;;;15.13;100.00
70015;BME280;57358;51.094;6.760;2022-09-14T15:00:23;99831.31;;;15.22;100.00
70015;BME280;57358;51.094;6.760;2022-09-14T15:02:50;99660.09;;;14.01;100.00
70015;BME280;57358;51.094;6.760;2022-09-14T15:05:17;99827.13;;;14.98;100.00
70015;BME280;57358;51.094;6.760;2022-09-14T15:07:43;99807.50;;;15.22;100.00
70015;BME280;57358;51.094;6.760;2022-09-14T15:10:14;99790.38;;;15.16;100.00
70015;BME280;57358;51.094;6.760;2022-09-14T15:12:41;99547.84;;;13.66;100.00
70015;BME280;57358;51.094;6.760;2022-09-14T15:15:16;99778.09;;;15.15;100.00
70015;BME280;57358;51.094;6.760;2022-09-14T15:17:43;99776.03;;;15.19;100.00
70015;BME280;57358;51.094;6.760;2022-09-14T15:20:11;99604.13;;;14.18;100.00
70015;BME280;57358;51.094;6.760;2022-09-14T15:22:38;99807.50;;;15.22;100.00
70015;BME280;57358;51.094;6.760;2022-09-14T15:25:09;99783.03;;;15.20;100.00
70015;BME280;57358;51.094;6.760;2022-09-14T15:27:36;99793.09;;;15.35;100.00